createdAt,value
2017-08-24T00:01:00.898Z,95.10
2017-08-24T00:03:28.608Z,95.20
2017-08-24T00:05:56.189Z,95.20
2017-08-24T00:08:23.710Z,95.20
2017-08-24T00:10:51.298Z,95.20
2017-08-24T00:13:18.858Z,95.20
2017-08-24T00:15:46.433Z,95.30
2017-08-24T00:18:14.010Z,95.20
2017-08-24T00:20:41.570Z,95.20
2017-08-24T00:23:09.111Z,95.20
2017-08-24T00:25:36.680Z,95.20
2017-08-24T00:28:04.240Z,95.30
2017-08-24T00:30:31.706Z,95.40
2017-08-24T00:32:59.465Z,95.50
2017-08-24T00:35:27.005Z,95.50
2017-08-24T00:37:54.580Z,95.60
2017-08-24T00:40:22.192Z,95.70
2017-08-24T00:42:49.764Z,95.80
2017-08-24T00:45:17.254Z,95.80
2017-08-24T00:47:44.830Z,95.80
2017-08-24T00:50:12.419Z,95.80
2017-08-24T00:52:39.966Z,96.10
2017-08-24T00:55:07.754Z,95.80
2017-08-24T00:57:35.299Z,96.00
2017-08-24T01:00:02.825Z,96.00
2017-08-24T01:02:30.416Z,96.10
2017-08-24T01:04:57.901Z,96.10
2017-08-24T01:07:25.419Z,96.30
2017-08-24T01:09:53.163Z,96.40
2017-08-24T01:12:20.708Z,96.30
2017-08-24T01:14:48.215Z,96.30
2017-08-24T01:17:15.960Z,96.40
2017-08-24T01:19:43.489Z,96.40
2017-08-24T01:22:11.035Z,96.40
2017-08-24T01:24:38.770Z,96.30
2017-08-24T01:27:06.328Z,96.20
2017-08-24T01:29:33.911Z,96.30
2017-08-24T01:32:01.517Z,96.20
2017-08-24T01:34:29.020Z,96.10
2017-08-24T01:36:56.604Z,96.00
2017-08-24T01:39:24.198Z,95.90
2017-08-24T01:41:51.716Z,95.80
2017-08-24T01:44:19.272Z,95.80
2017-08-24T01:46:47.000Z,95.80
2017-08-24T01:49:15.406Z,95.80
2017-08-24T01:51:42.913Z,95.70
2017-08-24T01:54:10.556Z,95.70
2017-08-24T01:56:38.098Z,95.70
2017-08-24T01:59:05.648Z,95.70
2017-08-24T02:01:33.269Z,95.80
2017-08-24T02:04:00.782Z,95.70
2017-08-24T02:06:28.336Z,96.00
2017-08-24T02:08:55.945Z,95.80
2017-08-24T02:11:23.499Z,95.80
2017-08-24T02:13:51.014Z,95.80
2017-08-24T02:16:18.626Z,95.80
2017-08-24T02:18:46.225Z,95.70
2017-08-24T02:21:13.814Z,95.70
2017-08-24T02:23:41.391Z,95.60
2017-08-24T02:26:08.942Z,95.60
2017-08-24T02:28:36.509Z,95.70
2017-08-24T02:31:04.117Z,95.60
2017-08-24T02:33:31.617Z,95.60
2017-08-24T02:35:59.170Z,95.60
2017-08-24T02:38:26.752Z,95.40
2017-08-24T02:40:54.820Z,95.30
2017-08-24T02:43:22.396Z,95.30
2017-08-24T02:45:49.979Z,95.20
2017-08-24T02:48:17.498Z,95.20
2017-08-24T02:50:45.051Z,95.30
2017-08-24T02:53:12.612Z,95.20
2017-08-24T02:55:40.162Z,95.20
2017-08-24T02:58:07.707Z,95.20
2017-08-24T03:00:35.338Z,95.30
2017-08-24T03:03:02.901Z,95.30
2017-08-24T03:05:30.460Z,95.30
2017-08-24T03:07:58.015Z,95.30
2017-08-24T03:10:25.521Z,95.30
2017-08-24T03:12:53.074Z,95.20
2017-08-24T03:15:20.664Z,95.10
2017-08-24T03:17:48.177Z,95.10
2017-08-24T03:20:15.719Z,95.00
2017-08-24T03:22:43.448Z,95.10
2017-08-24T03:25:10.962Z,95.00
2017-08-24T03:27:38.507Z,95.00
2017-08-24T03:30:06.134Z,95.10
2017-08-24T03:32:33.682Z,95.10
2017-08-24T03:35:01.179Z,95.10
2017-08-24T03:37:28.748Z,95.00
2017-08-24T03:39:56.286Z,94.90
2017-08-24T03:42:23.809Z,95.00
2017-08-24T03:44:51.460Z,95.10
2017-08-24T03:47:18.973Z,95.00
2017-08-24T03:49:46.531Z,95.00
2017-08-24T03:52:14.814Z,95.10
2017-08-24T03:54:43.089Z,95.10
2017-08-24T03:57:10.816Z,94.90
2017-08-24T03:59:38.559Z,94.80
2017-08-24T04:02:06.109Z,94.60
2017-08-24T04:04:33.706Z,94.30
2017-08-24T04:07:01.265Z,94.20
2017-08-24T04:09:28.819Z,94.20
2017-08-24T04:11:56.394Z,93.90
2017-08-24T04:14:24.097Z,93.90
2017-08-24T04:16:51.632Z,93.80
2017-08-24T04:19:19.183Z,93.80
2017-08-24T04:21:46.901Z,93.70
2017-08-24T04:24:14.524Z,93.20
2017-08-24T04:26:42.097Z,92.70
2017-08-24T04:29:09.830Z,91.10
2017-08-24T04:31:37.385Z,90.30
2017-08-24T04:34:04.909Z,89.20
2017-08-24T04:36:33.175Z,86.60
2017-08-24T04:39:00.723Z,85.20
2017-08-24T04:41:28.279Z,83.50
2017-08-24T04:43:56.043Z,80.00
2017-08-24T04:46:23.640Z,76.30
2017-08-24T04:48:51.203Z,74.90
2017-08-24T04:51:18.772Z,72.90
2017-08-24T04:53:46.338Z,72.20
2017-08-24T04:56:13.862Z,70.40
2017-08-24T04:58:41.380Z,69.50
2017-08-24T05:01:08.965Z,66.90
2017-08-24T05:03:36.463Z,62.80
2017-08-24T05:06:04.056Z,60.70
2017-08-24T05:08:31.616Z,60.30
2017-08-24T05:11:00.086Z,61.00
2017-08-24T05:13:27.703Z,61.30
2017-08-24T05:15:55.278Z,63.60
2017-08-24T05:18:22.824Z,65.00
2017-08-24T05:20:50.525Z,66.60
2017-08-24T05:23:18.068Z,67.20
2017-08-24T05:25:45.573Z,66.00
2017-08-24T05:28:13.325Z,62.70
2017-08-24T05:30:40.874Z,58.70
2017-08-24T05:33:08.431Z,55.80
2017-08-24T05:35:36.162Z,55.50
2017-08-24T05:38:03.692Z,53.60
2017-08-24T05:40:31.243Z,52.70
2017-08-24T05:42:58.832Z,51.70
2017-08-24T05:45:26.377Z,50.70
2017-08-24T05:47:53.909Z,50.20
2017-08-24T05:50:21.556Z,50.30
2017-08-24T05:52:49.129Z,48.40
2017-08-24T05:55:16.676Z,46.80
2017-08-24T05:57:44.418Z,44.10
2017-08-24T06:00:11.973Z,41.00
2017-08-24T06:02:39.516Z,40.50
2017-08-24T06:05:07.094Z,40.10
2017-08-24T06:07:34.659Z,42.10
2017-08-24T06:10:02.191Z,41.60
2017-08-24T06:12:29.744Z,40.80
2017-08-24T06:14:57.301Z,42.80
2017-08-24T06:17:24.847Z,43.70
2017-08-24T06:19:52.527Z,47.00
2017-08-24T06:22:20.120Z,48.90
2017-08-24T06:24:47.689Z,50.20
2017-08-24T06:27:15.266Z,50.60
2017-08-24T06:29:42.781Z,51.50
2017-08-24T06:32:10.371Z,50.60
2017-08-24T06:34:38.055Z,50.50
2017-08-24T06:37:05.771Z,50.00
2017-08-24T06:39:33.312Z,49.50
2017-08-24T06:42:00.866Z,46.90
2017-08-24T06:44:28.424Z,44.30
2017-08-24T06:46:55.985Z,42.30
2017-08-24T06:49:23.556Z,39.90
2017-08-24T06:51:51.087Z,39.70
2017-08-24T06:54:18.592Z,37.90
2017-08-24T06:56:46.154Z,35.50
2017-08-24T06:59:14.525Z,34.90
2017-08-24T07:01:42.070Z,34.30
2017-08-24T07:04:09.596Z,33.10
2017-08-24T07:06:37.160Z,31.70
2017-08-24T07:09:04.700Z,30.30
2017-08-24T07:11:32.323Z,30.00
2017-08-24T07:13:59.808Z,30.50
2017-08-24T07:16:28.482Z,29.50
2017-08-24T07:18:56.051Z,30.00
2017-08-24T07:21:23.599Z,29.20
2017-08-24T07:23:51.120Z,29.00
2017-08-24T07:26:18.772Z,30.70
2017-08-24T07:28:46.322Z,30.00
2017-08-24T07:31:13.821Z,30.00
2017-08-24T07:33:41.410Z,29.40
2017-08-24T07:36:08.921Z,29.20
2017-08-24T07:38:36.489Z,28.70
2017-08-24T07:41:04.209Z,29.40
2017-08-24T07:43:31.710Z,29.40
2017-08-24T07:45:59.309Z,29.00
2017-08-24T07:48:26.974Z,29.10
2017-08-24T07:50:54.482Z,29.10
2017-08-24T07:53:22.101Z,29.00
2017-08-24T07:55:49.712Z,28.10
2017-08-24T07:58:17.266Z,28.50
2017-08-24T08:00:44.797Z,28.00
2017-08-24T08:03:12.537Z,27.70
2017-08-24T08:05:40.027Z,27.40
2017-08-24T08:08:07.585Z,27.10
2017-08-24T08:10:35.193Z,27.10
2017-08-24T08:13:02.755Z,27.50
2017-08-24T08:15:30.331Z,27.40
2017-08-24T08:17:57.954Z,26.70
2017-08-24T08:20:25.481Z,28.20
2017-08-24T08:22:53.172Z,27.50
2017-08-24T08:25:42.407Z,26.40
2017-08-24T08:28:10.029Z,28.10
2017-08-24T08:30:37.587Z,29.70
2017-08-24T08:33:05.157Z,28.60
2017-08-24T08:35:32.743Z,28.20
2017-08-24T08:38:00.431Z,28.00
2017-08-24T08:40:28.327Z,27.30
2017-08-24T08:42:55.884Z,27.20
2017-08-24T08:45:23.477Z,27.20
2017-08-24T08:47:51.081Z,27.60
2017-08-24T08:50:18.629Z,29.20
2017-08-24T08:52:46.533Z,28.20
2017-08-24T08:55:14.315Z,26.90
2017-08-24T08:57:41.847Z,26.60
2017-08-24T09:00:09.380Z,27.00
2017-08-24T09:02:36.998Z,26.60
2017-08-24T09:05:04.552Z,26.00
2017-08-24T09:07:32.123Z,26.10
2017-08-24T09:09:59.688Z,26.90
2017-08-24T09:12:27.348Z,26.90
2017-08-24T09:14:54.898Z,28.00
2017-08-24T09:17:22.594Z,28.80
2017-08-24T09:19:50.169Z,29.40
2017-08-24T09:22:17.739Z,29.10
2017-08-24T09:24:46.115Z,28.80
2017-08-24T09:27:13.651Z,28.70
2017-08-24T09:29:41.178Z,28.60
2017-08-24T09:32:25.345Z,29.10
2017-08-24T09:35:10.932Z,29.60
2017-08-24T09:37:38.500Z,28.70
2017-08-24T09:40:06.043Z,29.20
2017-08-24T09:42:33.526Z,30.30
2017-08-24T09:45:01.107Z,28.80
2017-08-24T09:47:29.390Z,28.60
2017-08-24T09:49:56.969Z,27.20
2017-08-24T09:52:25.588Z,26.90
2017-08-24T09:54:53.140Z,28.00
2017-08-24T09:57:20.650Z,28.10
2017-08-24T09:59:48.344Z,27.60
2017-08-24T10:02:16.090Z,27.90
2017-08-24T10:04:43.586Z,28.70
2017-08-24T10:07:11.158Z,30.60
2017-08-24T10:09:38.729Z,28.90
2017-08-24T10:12:06.317Z,30.00
2017-08-24T10:14:33.928Z,30.40
2017-08-24T10:17:01.476Z,33.00
2017-08-24T10:19:29.056Z,32.60
2017-08-24T10:21:56.657Z,31.00
2017-08-24T10:24:24.228Z,32.00
2017-08-24T10:26:52.733Z,32.90
2017-08-24T10:29:20.387Z,33.50
2017-08-24T10:31:48.075Z,33.10
2017-08-24T10:34:15.643Z,35.30
2017-08-24T10:36:43.385Z,34.10
2017-08-24T10:39:10.951Z,35.40
2017-08-24T10:41:38.484Z,36.50
2017-08-24T10:44:06.090Z,38.70
2017-08-24T10:46:33.687Z,38.20
2017-08-24T10:49:01.208Z,38.80
2017-08-24T10:51:28.933Z,38.80
2017-08-24T10:53:56.505Z,40.50
2017-08-24T10:56:24.040Z,39.00
2017-08-24T10:58:51.701Z,39.10
2017-08-24T11:01:19.326Z,38.80
2017-08-24T11:03:46.913Z,39.60
2017-08-24T11:06:14.505Z,40.40
2017-08-24T11:08:42.052Z,41.50
2017-08-24T11:11:09.607Z,40.00
2017-08-24T11:13:37.288Z,41.40
2017-08-24T11:16:04.862Z,40.80
2017-08-24T11:18:32.428Z,39.80
2017-08-24T11:21:00.030Z,39.90
2017-08-24T11:23:27.580Z,39.60
2017-08-24T11:25:55.191Z,37.40
2017-08-24T11:28:22.761Z,36.20
2017-08-24T11:30:50.318Z,36.30
2017-08-24T11:33:17.890Z,36.10
2017-08-24T11:35:45.523Z,37.60
2017-08-24T11:38:13.121Z,36.90
2017-08-24T11:40:40.630Z,37.50
2017-08-24T11:43:08.206Z,38.20
2017-08-24T11:45:35.885Z,39.10
2017-08-24T11:48:03.591Z,38.20
2017-08-24T11:50:31.424Z,39.50
2017-08-24T11:53:00.498Z,40.10
2017-08-24T11:55:28.912Z,41.30
2017-08-24T11:57:57.567Z,43.10
2017-08-24T12:00:25.136Z,42.80
2017-08-24T12:02:52.717Z,44.10
2017-08-24T12:05:20.422Z,44.80
2017-08-24T12:07:48.015Z,44.90
2017-08-24T12:10:15.554Z,45.40
2017-08-24T12:12:43.360Z,46.40
2017-08-24T12:15:10.931Z,46.80
2017-08-24T12:17:38.506Z,48.20
2017-08-24T12:20:06.224Z,48.20
2017-08-24T12:22:33.797Z,47.50
2017-08-24T12:25:01.371Z,46.90
2017-08-24T12:27:29.025Z,47.90
2017-08-24T12:29:56.613Z,48.00
2017-08-24T12:32:24.210Z,47.60
2017-08-24T12:34:51.971Z,49.50
2017-08-24T12:37:19.544Z,48.70
2017-08-24T12:39:47.096Z,48.00
2017-08-24T12:42:14.696Z,49.80
2017-08-24T12:44:42.246Z,48.50
2017-08-24T12:47:09.844Z,48.30
2017-08-24T12:49:37.537Z,49.10
2017-08-24T12:52:05.134Z,49.80
2017-08-24T12:54:32.941Z,50.40
2017-08-24T12:57:00.602Z,50.90
2017-08-24T12:59:28.085Z,51.10
2017-08-24T13:01:55.665Z,50.10
2017-08-24T13:04:23.303Z,50.50
2017-08-24T13:06:50.888Z,50.50
2017-08-24T13:09:18.450Z,49.50
2017-08-24T13:11:46.090Z,50.10
2017-08-24T13:14:13.730Z,50.70
2017-08-24T13:16:42.186Z,50.80
2017-08-24T13:19:09.781Z,51.20
2017-08-24T13:21:37.374Z,51.40
2017-08-24T13:24:04.914Z,50.60
2017-08-24T13:26:33.583Z,51.30
2017-08-24T13:29:01.162Z,50.60
2017-08-24T13:31:29.226Z,49.50
2017-08-24T13:33:56.864Z,48.90
2017-08-24T13:36:24.429Z,50.30
2017-08-24T13:38:52.353Z,50.50
2017-08-24T13:41:20.199Z,49.80
2017-08-24T13:43:47.797Z,49.20
2017-08-24T13:46:15.404Z,48.80
2017-08-24T13:48:42.992Z,49.20
2017-08-24T13:51:10.585Z,50.00
2017-08-24T13:53:38.178Z,50.90
2017-08-24T13:56:05.735Z,49.20
2017-08-24T13:58:33.378Z,50.00
2017-08-24T14:01:01.086Z,50.50
2017-08-24T14:03:28.707Z,49.70
2017-08-24T14:05:56.333Z,50.60
2017-08-24T14:08:23.950Z,50.50
2017-08-24T14:10:51.607Z,49.90
2017-08-24T14:13:19.224Z,49.60
2017-08-24T14:15:46.765Z,49.80
2017-08-24T14:18:15.095Z,49.90
2017-08-24T14:20:42.672Z,50.40
2017-08-24T14:23:10.217Z,50.60
2017-08-24T14:25:37.980Z,51.60
2017-08-24T14:28:05.515Z,52.50
2017-08-24T14:30:33.405Z,51.50
2017-08-24T14:33:00.997Z,51.40
2017-08-24T14:35:28.508Z,52.60
2017-08-24T14:37:56.188Z,52.50
2017-08-24T14:40:24.353Z,52.80
2017-08-24T14:42:51.979Z,53.10
2017-08-24T14:45:19.656Z,54.80
2017-08-24T14:47:48.116Z,54.40
2017-08-24T14:50:15.807Z,54.40
2017-08-24T14:52:43.479Z,55.30
2017-08-24T14:55:11.195Z,54.40
2017-08-24T14:57:38.821Z,54.60
2017-08-24T15:00:06.470Z,55.00
2017-08-24T15:02:34.093Z,55.00
2017-08-24T15:05:01.676Z,53.90
2017-08-24T15:07:29.288Z,53.60
2017-08-24T15:09:57.388Z,53.50
2017-08-24T15:12:26.181Z,53.80
2017-08-24T15:14:53.800Z,53.90
2017-08-24T15:17:21.481Z,54.10
2017-08-24T15:19:49.096Z,54.50
2017-08-24T15:22:16.691Z,54.70
2017-08-24T15:24:44.345Z,55.20
2017-08-24T15:27:11.934Z,55.10
2017-08-24T15:29:39.574Z,55.40
2017-08-24T15:32:07.216Z,55.60
2017-08-24T15:34:34.754Z,56.10
2017-08-24T15:37:02.309Z,56.50
2017-08-24T15:39:29.961Z,56.00
2017-08-24T15:41:57.551Z,55.70
2017-08-24T15:44:25.156Z,56.40
2017-08-24T15:46:52.944Z,56.80
2017-08-24T15:49:20.505Z,57.40
2017-08-24T15:51:48.125Z,57.50
2017-08-24T15:54:15.854Z,59.60
2017-08-24T15:56:43.419Z,59.20
2017-08-24T15:59:10.978Z,59.80
2017-08-24T16:01:38.605Z,59.40
2017-08-24T16:04:06.252Z,59.20
2017-08-24T16:06:33.849Z,60.00
2017-08-24T16:09:01.650Z,61.10
2017-08-24T16:11:29.243Z,61.00
2017-08-24T16:13:56.860Z,61.00
2017-08-24T16:16:24.502Z,61.70
2017-08-24T16:18:52.156Z,61.90
2017-08-24T16:21:19.778Z,62.40
2017-08-24T16:23:47.367Z,62.20
2017-08-24T16:26:14.943Z,62.30
2017-08-24T16:28:44.657Z,62.30
2017-08-24T16:31:12.248Z,62.10
2017-08-24T16:33:40.975Z,63.10
2017-08-24T16:36:08.626Z,63.50
2017-08-24T16:38:36.264Z,64.40
2017-08-24T16:41:03.860Z,64.80
2017-08-24T16:43:31.445Z,65.50
2017-08-24T16:45:59.104Z,65.20
2017-08-24T16:48:26.686Z,65.50
2017-08-24T16:50:54.266Z,66.70
2017-08-24T16:53:22.042Z,66.10
2017-08-24T16:55:49.617Z,66.40
2017-08-24T16:58:17.269Z,67.60
2017-08-24T17:00:45.110Z,67.30
2017-08-24T17:03:12.705Z,67.90
2017-08-24T17:05:41.497Z,69.00
2017-08-24T17:08:09.055Z,69.20
2017-08-24T17:10:36.657Z,69.80
2017-08-24T17:13:04.237Z,71.10
2017-08-24T17:15:31.824Z,71.00
2017-08-24T17:17:59.413Z,71.40
2017-08-24T17:20:26.971Z,72.60
2017-08-24T17:22:54.616Z,73.00
2017-08-24T17:25:22.182Z,75.50
2017-08-24T17:27:49.796Z,76.40
2017-08-24T17:30:17.421Z,75.70
2017-08-24T17:32:46.098Z,76.20
2017-08-24T17:35:13.670Z,77.20
2017-08-24T17:37:41.376Z,77.10
2017-08-24T17:40:08.984Z,77.50
2017-08-24T17:42:36.575Z,78.20
2017-08-24T17:45:05.134Z,78.90
2017-08-24T17:47:32.772Z,79.20
2017-08-24T17:50:00.373Z,80.40
2017-08-24T17:52:27.962Z,80.40
2017-08-24T17:54:55.593Z,81.10
2017-08-24T17:57:23.145Z,82.10
2017-08-24T17:59:50.800Z,83.10
2017-08-24T18:02:18.394Z,83.30
2017-08-24T18:04:46.301Z,84.90
2017-08-24T18:07:13.877Z,84.00
2017-08-24T18:09:41.413Z,85.40
2017-08-24T18:12:09.080Z,85.70
2017-08-24T18:14:36.734Z,86.30
2017-08-24T18:17:05.111Z,86.90
2017-08-24T18:19:33.578Z,87.30
2017-08-24T18:22:01.426Z,87.70
2017-08-24T18:24:29.802Z,89.20
2017-08-24T18:26:58.454Z,89.10
2017-08-24T18:29:27.011Z,89.40
2017-08-24T18:31:54.638Z,89.60
2017-08-24T18:34:22.253Z,90.20
2017-08-24T18:36:49.898Z,89.70
2017-08-24T18:39:17.600Z,89.50
2017-08-24T18:41:45.223Z,89.60
2017-08-24T18:44:12.934Z,89.70
2017-08-24T18:46:40.558Z,90.00
2017-08-24T18:49:08.258Z,89.90
2017-08-24T18:51:36.712Z,90.10
2017-08-24T18:54:04.325Z,90.00
2017-08-24T18:56:31.908Z,90.20
2017-08-24T18:58:59.746Z,90.30
2017-08-24T19:01:27.339Z,90.40
2017-08-24T19:03:54.990Z,90.30
2017-08-24T19:06:22.728Z,90.40
2017-08-24T19:08:50.345Z,90.60
2017-08-24T19:11:17.922Z,90.70
2017-08-24T19:13:45.651Z,90.90
2017-08-24T19:16:14.176Z,91.20
2017-08-24T19:18:42.658Z,91.40
2017-08-24T19:21:10.423Z,91.60
2017-08-24T19:23:39.317Z,91.80
2017-08-24T19:26:07.354Z,92.20
2017-08-24T19:28:35.290Z,92.50
2017-08-24T19:31:02.918Z,92.70
2017-08-24T19:33:31.276Z,92.90
2017-08-24T19:35:59.686Z,93.00
2017-08-24T19:38:27.834Z,93.40
2017-08-24T19:40:55.407Z,93.60
2017-08-24T19:43:23.068Z,93.70
2017-08-24T19:45:51.505Z,93.80
2017-08-24T19:48:19.246Z,93.90
2017-08-24T19:50:47.077Z,94.10
2017-08-24T19:53:14.701Z,94.30
2017-08-24T19:55:42.972Z,94.40
2017-08-24T19:58:10.765Z,94.60
2017-08-24T20:00:38.705Z,94.70
2017-08-24T20:03:07.076Z,94.80
2017-08-24T20:05:34.756Z,94.90
2017-08-24T20:08:02.430Z,95.20
2017-08-24T20:10:31.342Z,95.30
2017-08-24T20:12:59.032Z,95.50
2017-08-24T20:15:26.595Z,95.70
2017-08-24T20:17:54.217Z,95.60
2017-08-24T20:20:22.022Z,95.80
2017-08-24T20:22:49.660Z,95.90
2017-08-24T20:25:17.315Z,96.00
2017-08-24T20:27:45.088Z,96.20
2017-08-24T20:30:12.716Z,96.30
2017-08-24T20:32:40.297Z,96.50
2017-08-24T20:35:08.001Z,96.70
2017-08-24T20:37:35.778Z,96.90
2017-08-24T20:40:03.401Z,96.80
2017-08-24T20:42:31.082Z,97.10
2017-08-24T20:44:58.709Z,97.20
2017-08-24T20:47:26.368Z,96.70
2017-08-24T20:49:54.983Z,97.10
2017-08-24T20:52:22.654Z,96.70
2017-08-24T20:54:50.314Z,96.40
2017-08-24T20:57:17.977Z,96.40
2017-08-24T20:59:45.644Z,96.70
2017-08-24T21:02:13.330Z,96.60
2017-08-24T21:04:40.928Z,97.10
2017-08-24T21:07:08.617Z,97.20
2017-08-24T21:09:36.218Z,97.30
2017-08-24T21:12:03.982Z,97.90
2017-08-24T21:14:31.583Z,97.70
2017-08-24T21:16:59.215Z,97.60
2017-08-24T21:19:26.844Z,97.50
2017-08-24T21:21:54.470Z,97.20
2017-08-24T21:24:22.097Z,96.80
2017-08-24T21:26:49.742Z,96.40
2017-08-24T21:29:17.341Z,96.40
2017-08-24T21:31:44.978Z,96.40
2017-08-24T21:34:12.691Z,96.30
2017-08-24T21:36:40.292Z,96.40
2017-08-24T21:39:07.946Z,96.80
2017-08-24T21:41:35.858Z,96.90
2017-08-24T21:44:03.448Z,97.20
2017-08-24T21:46:31.071Z,97.60
2017-08-24T21:48:58.657Z,97.30
2017-08-24T21:51:26.174Z,97.20
2017-08-24T21:53:53.754Z,96.90
2017-08-24T21:56:21.399Z,96.70
2017-08-24T21:58:48.959Z,96.60
2017-08-24T22:01:16.579Z,96.80
2017-08-24T22:03:44.182Z,96.90
2017-08-24T22:06:11.829Z,97.50
2017-08-24T22:08:39.358Z,97.10
2017-08-24T22:11:06.987Z,97.00
2017-08-24T22:13:34.588Z,97.30
2017-08-24T22:16:03.302Z,97.40
2017-08-24T22:18:30.920Z,97.50
2017-08-24T22:20:58.440Z,97.70
2017-08-24T22:23:26.014Z,97.80
2017-08-24T22:25:53.597Z,97.80
2017-08-24T22:28:21.163Z,97.90
2017-08-24T22:30:48.708Z,98.10
2017-08-24T22:33:16.327Z,97.90
2017-08-24T22:35:43.884Z,97.90
2017-08-24T22:38:11.447Z,97.90
2017-08-24T22:40:39.153Z,98.00
2017-08-24T22:43:06.731Z,97.90
2017-08-24T22:45:34.292Z,97.90
2017-08-24T22:48:01.866Z,98.00
2017-08-24T22:50:29.416Z,98.10
2017-08-24T22:52:56.941Z,98.20
2017-08-24T22:55:30.262Z,98.00
2017-08-24T22:58:03.537Z,97.70
2017-08-24T23:00:36.983Z,97.90
2017-08-24T23:06:09.897Z,98.50
2017-08-24T23:08:37.451Z,98.30
2017-08-24T23:11:04.992Z,98.10
2017-08-24T23:13:32.725Z,97.90
2017-08-24T23:16:00.273Z,97.80
2017-08-24T23:18:27.816Z,97.80
2017-08-24T23:20:55.558Z,97.70
2017-08-24T23:23:23.132Z,97.70
2017-08-24T23:25:50.671Z,97.50
2017-08-24T23:28:18.421Z,97.30
2017-08-24T23:30:46.014Z,97.30
2017-08-24T23:33:13.561Z,97.30
2017-08-24T23:35:41.158Z,97.40
2017-08-24T23:38:08.720Z,97.50
2017-08-24T23:40:36.281Z,97.90
2017-08-24T23:43:03.819Z,99.10
2017-08-24T23:45:31.383Z,99.10
2017-08-24T23:47:58.947Z,99.30
2017-08-24T23:50:26.519Z,99.20
2017-08-24T23:52:54.055Z,99.30
2017-08-24T23:55:21.576Z,99.10
2017-08-24T23:57:49.340Z,98.80
